createdAt,value
2023-02-21T00:00:01.098Z,9.5
2023-02-21T00:01:01.501Z,9.5
2023-02-21T00:02:03.079Z,9.5
2023-02-21T00:03:01.794Z,9.5
2023-02-21T00:04:01.142Z,9.5
2023-02-21T00:05:01.334Z,9.5
2023-02-21T00:06:01.421Z,9.5
2023-02-21T00:07:01.262Z,9.5
2023-02-21T00:08:01.274Z,9.5
2023-02-21T00:09:01.291Z,9.5
2023-02-21T00:10:01.862Z,9.5
2023-02-21T00:11:01.500Z,9.5
2023-02-21T00:12:01.372Z,9.5
2023-02-21T00:13:01.342Z,9.5
2023-02-21T00:14:01.398Z,9.5
2023-02-21T00:15:02.020Z,9.4
2023-02-21T00:16:01.122Z,9.4
2023-02-21T00:17:01.492Z,9.4
2023-02-21T00:18:01.492Z,9.4
2023-02-21T00:19:01.256Z,9.4
2023-02-21T00:20:01.232Z,9.3
2023-02-21T00:21:00.937Z,9.3
2023-02-21T00:22:00.626Z,9.3
2023-02-21T00:23:00.354Z,9.3
2023-02-21T00:24:00.018Z,9.3
2023-02-21T00:24:59.708Z,9.3
2023-02-21T00:26:01.481Z,9.3
2023-02-21T00:27:01.064Z,9.3
2023-02-21T00:28:01.394Z,9.2
2023-02-21T00:29:01.093Z,9.2
2023-02-21T00:30:01.082Z,9.2
2023-02-21T00:31:01.149Z,9.2
2023-02-21T00:32:02.549Z,9.2
2023-02-21T00:33:02.246Z,9.1
2023-02-21T00:34:01.414Z,9.1
2023-02-21T00:35:02.275Z,9.1
2023-02-21T00:36:02.164Z,9.1
2023-02-21T00:37:01.182Z,9.1
2023-02-21T00:38:01.159Z,9.1
2023-02-21T00:39:01.215Z,9.1
2023-02-21T00:40:01.483Z,9.1
2023-02-21T00:41:01.074Z,9.1
2023-02-21T00:42:01.064Z,9.1
2023-02-21T00:43:01.057Z,9.1
2023-02-21T00:44:01.069Z,9.1
2023-02-21T00:45:01.122Z,9.1
2023-02-21T00:46:01.293Z,9.1
2023-02-21T00:47:02.307Z,9.1
2023-02-21T00:48:02.628Z,9.1
2023-02-21T00:49:02.014Z,9.1
2023-02-21T00:50:01.236Z,9.1
2023-02-21T00:51:03.164Z,9.1
2023-02-21T00:52:01.138Z,9.1
2023-02-21T00:53:01.304Z,9.1
2023-02-21T00:54:01.465Z,9.1
2023-02-21T00:55:01.357Z,9.1
2023-02-21T00:56:04.749Z,9.1
2023-02-21T00:57:01.679Z,9
2023-02-21T00:58:02.764Z,9.1
2023-02-21T00:59:01.317Z,9.1
2023-02-21T01:00:02.132Z,9.1
2023-02-21T01:01:06.422Z,9.1
2023-02-21T01:02:00.675Z,9
2023-02-21T01:03:00.291Z,9.1
2023-02-21T01:03:59.940Z,9.1
2023-02-21T01:04:59.649Z,9
2023-02-21T01:06:10.780Z,9
2023-02-21T01:07:01.398Z,9
2023-02-21T01:08:01.740Z,9
2023-02-21T01:09:01.501Z,9
2023-02-21T01:10:01.460Z,9
2023-02-21T01:11:14.713Z,9
2023-02-21T01:12:01.165Z,9
2023-02-21T01:13:01.229Z,9
2023-02-21T01:14:01.497Z,9
2023-02-21T01:15:01.415Z,9
2023-02-21T01:16:01.504Z,9
2023-02-21T01:17:12.601Z,9
2023-02-21T01:18:01.965Z,9
2023-02-21T01:19:01.387Z,9
2023-02-21T01:20:01.491Z,9
2023-02-21T01:21:02.124Z,9
2023-02-21T01:22:02.189Z,9
2023-02-21T01:23:01.118Z,9
2023-02-21T01:24:01.130Z,9
2023-02-21T01:25:01.064Z,9
2023-02-21T01:26:00.615Z,9
2023-02-21T01:27:00.254Z,9
2023-02-21T01:28:00.898Z,9
2023-02-21T01:29:01.172Z,9
2023-02-21T01:30:01.179Z,9
2023-02-21T01:31:01.200Z,9
2023-02-21T01:32:01.496Z,9
2023-02-21T01:33:01.069Z,9
2023-02-21T01:34:01.323Z,9
2023-02-21T01:35:01.565Z,9.1
2023-02-21T01:36:01.108Z,9.1
2023-02-21T01:37:01.126Z,9
2023-02-21T01:38:01.103Z,9
2023-02-21T01:39:01.130Z,9
2023-02-21T01:40:01.523Z,9.1
2023-02-21T01:41:01.246Z,9.1
2023-02-21T01:42:01.400Z,9.1
2023-02-21T01:43:01.160Z,9.1
2023-02-21T01:44:01.076Z,9.1
2023-02-21T01:45:02.196Z,9.1
2023-02-21T01:46:02.031Z,9.1
2023-02-21T01:47:01.507Z,9.1
2023-02-21T01:48:01.170Z,9.1
2023-02-21T01:49:01.794Z,9.2
2023-02-21T01:50:01.092Z,9.2
2023-02-21T01:51:00.771Z,9.2
2023-02-21T01:52:00.401Z,9.2
2023-02-21T01:53:00.292Z,9.2
2023-02-21T01:54:00.450Z,9.2
2023-02-21T01:55:00.143Z,9.2
2023-02-21T01:55:59.795Z,9.2
2023-02-21T01:57:02.334Z,9.2
2023-02-21T01:58:04.359Z,9.3
2023-02-21T01:59:01.163Z,9.2
2023-02-21T02:00:01.156Z,9.3
2023-02-21T02:01:01.323Z,9.3
2023-02-21T02:02:01.268Z,9.2
2023-02-21T02:03:01.210Z,9.3
2023-02-21T02:04:01.089Z,9.2
2023-02-21T02:05:01.462Z,9.2
2023-02-21T02:06:01.210Z,9.3
2023-02-21T02:07:01.108Z,9.2
2023-02-21T02:08:01.116Z,9.2
2023-02-21T02:09:01.149Z,9.2
2023-02-21T02:10:01.718Z,9.2
2023-02-21T02:11:01.118Z,9.2
2023-02-21T02:12:01.544Z,9.2
2023-02-21T02:13:01.616Z,9.2
2023-02-21T02:14:01.729Z,9.2
2023-02-21T02:15:01.840Z,9.1
2023-02-21T02:16:01.634Z,9.1
2023-02-21T02:17:03.408Z,9.2
2023-02-21T02:18:01.588Z,9.2
2023-02-21T02:19:01.240Z,9.2
2023-02-21T02:20:02.306Z,9.2
2023-02-21T02:21:02.914Z,9.1
2023-02-21T02:22:03.570Z,9.2
2023-02-21T02:23:01.064Z,9.1
2023-02-21T02:24:01.314Z,9.1
2023-02-21T02:25:01.839Z,9.2
2023-02-21T02:26:02.353Z,9.2
2023-02-21T02:27:06.370Z,9.1
2023-02-21T02:28:02.142Z,9.2
2023-02-21T02:29:02.202Z,9.2
2023-02-21T02:30:01.146Z,9.2
2023-02-21T02:31:01.674Z,9.1
2023-02-21T02:32:09.511Z,9.1
2023-02-21T02:33:02.097Z,9.1
2023-02-21T02:34:01.628Z,9.1
2023-02-21T02:35:01.590Z,9.1
2023-02-21T02:36:01.748Z,9.2
2023-02-21T02:37:14.089Z,9.1
2023-02-21T02:38:01.082Z,9.1
2023-02-21T02:39:01.121Z,9.1
2023-02-21T02:40:01.311Z,9.1
2023-02-21T02:41:01.468Z,9.1
2023-02-21T02:42:16.760Z,9.1
2023-02-21T02:43:01.123Z,9.1
2023-02-21T02:44:01.268Z,9.1
2023-02-21T02:45:01.344Z,9.1
2023-02-21T02:46:01.185Z,9.1
2023-02-21T02:47:01.345Z,9.1
2023-02-21T02:48:01.203Z,9.1
2023-02-21T02:49:01.140Z,9.1
2023-02-21T02:50:01.170Z,9.2
2023-02-21T02:51:01.180Z,9.1
2023-02-21T02:52:01.579Z,9.2
2023-02-21T02:53:01.214Z,9.2
2023-02-21T02:54:04.508Z,9.2
2023-02-21T02:55:01.444Z,9.2
2023-02-21T02:56:01.071Z,9.2
2023-02-21T02:57:01.095Z,9.2
2023-02-21T02:58:01.106Z,9.2
2023-02-21T02:59:01.137Z,9.2
2023-02-21T03:00:01.140Z,9.2
2023-02-21T03:01:01.072Z,9.2
2023-02-21T03:02:01.061Z,9.2
2023-02-21T03:03:01.361Z,9.2
2023-02-21T03:04:01.519Z,9.2
2023-02-21T03:05:01.143Z,9.2
2023-02-21T03:06:01.146Z,9.3
2023-02-21T03:07:01.169Z,9.3
2023-02-21T03:08:01.161Z,9.2
2023-02-21T03:09:01.990Z,9.2
2023-02-21T03:10:01.330Z,9.3
2023-02-21T03:11:01.074Z,9.3
2023-02-21T03:12:01.152Z,9.3
2023-02-21T03:13:02.464Z,9.3
2023-02-21T03:14:02.051Z,9.3
2023-02-21T03:15:01.157Z,9.3
2023-02-21T03:16:01.235Z,9.3
2023-02-21T03:17:01.240Z,9.3
2023-02-21T03:18:01.896Z,9.3
2023-02-21T03:19:01.151Z,9.3
2023-02-21T03:20:01.531Z,9.3
2023-02-21T03:21:01.261Z,9.3
2023-02-21T03:22:01.157Z,9.2
2023-02-21T03:23:01.154Z,9.2
2023-02-21T03:24:01.160Z,9.2
2023-02-21T03:25:00.787Z,9.2
2023-02-21T03:26:00.451Z,9.2
2023-02-21T03:27:00.047Z,9.3
2023-02-21T03:27:59.634Z,9.3
2023-02-21T03:29:01.478Z,9.3
2023-02-21T03:30:01.090Z,9.3
2023-02-21T03:31:01.936Z,9.3
2023-02-21T03:32:01.861Z,9.3
2023-02-21T03:33:01.124Z,9.3
2023-02-21T03:34:01.120Z,9.3
2023-02-21T03:35:01.126Z,9.3
2023-02-21T03:36:01.140Z,9.3
2023-02-21T03:37:01.145Z,9.3
2023-02-21T03:38:01.547Z,9.2
2023-02-21T03:39:01.162Z,9.3
2023-02-21T03:40:01.152Z,9.2
2023-02-21T03:41:01.063Z,9.2
2023-02-21T03:42:01.136Z,9.2
2023-02-21T03:43:01.756Z,9.2
2023-02-21T03:44:01.113Z,9.2
2023-02-21T03:45:01.821Z,9.2
2023-02-21T03:46:01.515Z,9.2
2023-02-21T03:47:00.925Z,9.2
2023-02-21T03:48:01.086Z,9.2
2023-02-21T03:49:01.122Z,9.2
2023-02-21T03:50:01.200Z,9.2
2023-02-21T03:51:01.084Z,9.2
2023-02-21T03:52:01.155Z,9.2
2023-02-21T03:53:01.169Z,9.2
2023-02-21T03:54:01.152Z,9.1
2023-02-21T03:55:01.814Z,9.1
2023-02-21T03:56:02.970Z,9.1
2023-02-21T03:57:01.456Z,9.2
2023-02-21T03:59:01.202Z,9.2
2023-02-21T04:00:01.106Z,9.2
2023-02-21T04:01:01.474Z,9.2
2023-02-21T04:02:01.682Z,9.2
2023-02-21T04:03:01.210Z,9.2
2023-02-21T04:04:01.123Z,9.2
2023-02-21T04:05:01.328Z,9.2
2023-02-21T04:06:01.137Z,9.2
2023-02-21T04:07:01.160Z,9.2
2023-02-21T04:08:01.853Z,9.2
2023-02-21T04:09:01.157Z,9.2
2023-02-21T04:10:00.671Z,9.2
2023-02-21T04:11:00.780Z,9.2
2023-02-21T04:12:00.437Z,9.2
2023-02-21T04:13:00.022Z,9.2
2023-02-21T04:13:59.724Z,9.2
2023-02-21T04:15:01.923Z,9.2
2023-02-21T04:16:01.895Z,9.2
2023-02-21T04:17:01.792Z,9.2
2023-02-21T04:18:01.773Z,9.2
2023-02-21T04:19:01.455Z,9.2
2023-02-21T04:20:01.113Z,9.2
2023-02-21T04:21:01.138Z,9.2
2023-02-21T04:22:01.204Z,9.2
2023-02-21T04:23:03.804Z,9.2
2023-02-21T04:24:01.129Z,9.3
2023-02-21T04:25:01.436Z,9.3
2023-02-21T04:26:02.832Z,9.2
2023-02-21T04:27:01.190Z,9.3
2023-02-21T04:28:01.160Z,9.2
2023-02-21T04:29:01.068Z,9.2
2023-02-21T04:30:01.091Z,9.3
2023-02-21T04:31:01.089Z,9.2
2023-02-21T04:32:01.363Z,9.2
2023-02-21T04:33:01.057Z,9.3
2023-02-21T04:34:11.326Z,9.3
2023-02-21T04:35:01.237Z,9.2
2023-02-21T04:36:01.125Z,9.2
2023-02-21T04:37:01.102Z,9.2
2023-02-21T04:38:01.184Z,9.2
2023-02-21T04:39:01.551Z,9.2
2023-02-21T04:40:00.935Z,9.2
2023-02-21T04:41:00.735Z,9.2
2023-02-21T04:42:00.596Z,9.2
2023-02-21T04:43:00.321Z,9.2
2023-02-21T04:44:00.023Z,9.2
2023-02-21T04:45:00.871Z,9.2
2023-02-21T04:46:01.101Z,9.2
2023-02-21T04:47:01.249Z,9.2
2023-02-21T04:48:01.227Z,9.2
2023-02-21T04:49:01.871Z,9.2
2023-02-21T04:50:01.113Z,9.2
2023-02-21T04:51:13.480Z,9.2
2023-02-21T04:52:01.157Z,9.2
2023-02-21T04:53:01.124Z,9.2
2023-02-21T04:54:01.844Z,9.2
2023-02-21T04:55:01.122Z,9.2
2023-02-21T04:56:01.143Z,9.2
2023-02-21T04:57:01.092Z,9.2
2023-02-21T04:58:01.081Z,9.2
2023-02-21T04:59:01.153Z,9.2
2023-02-21T05:00:01.173Z,9.2
2023-02-21T05:01:02.217Z,9.2
2023-02-21T05:02:02.773Z,9.3
2023-02-21T05:03:01.449Z,9.3
2023-02-21T05:04:01.150Z,9.3
2023-02-21T05:05:02.665Z,9.3
2023-02-21T05:06:02.628Z,9.3
2023-02-21T05:07:01.127Z,9.3
2023-02-21T05:08:01.132Z,9.3
2023-02-21T05:09:01.135Z,9.3
2023-02-21T05:10:01.115Z,9.3
2023-02-21T05:11:01.525Z,9.3
2023-02-21T05:12:01.243Z,9.3
2023-02-21T05:13:01.144Z,9.3
2023-02-21T05:14:01.144Z,9.3
2023-02-21T05:15:01.190Z,9.3
2023-02-21T05:16:01.329Z,9.3
2023-02-21T05:17:01.331Z,9.3
2023-02-21T05:18:01.400Z,9.3
2023-02-21T05:19:01.914Z,9.3
2023-02-21T05:20:02.763Z,9.3
2023-02-21T05:21:03.204Z,9.3
2023-02-21T05:22:01.765Z,9.3
2023-02-21T05:23:11.731Z,9.3
2023-02-21T05:24:04.544Z,9.3
2023-02-21T05:25:02.573Z,9.3
2023-02-21T05:26:01.543Z,9.3
2023-02-21T05:27:01.227Z,9.3
2023-02-21T05:28:01.263Z,9.3
2023-02-21T05:29:07.867Z,9.3
2023-02-21T05:30:01.127Z,9.3
2023-02-21T05:31:01.627Z,9.3
2023-02-21T05:32:00.105Z,9.3
2023-02-21T05:32:59.928Z,9.3
2023-02-21T05:34:09.374Z,9.3
2023-02-21T05:35:01.261Z,9.3
2023-02-21T05:36:01.243Z,9.3
2023-02-21T05:37:01.467Z,9.3
2023-02-21T05:38:01.695Z,9.3
2023-02-21T05:39:12.860Z,9.3
2023-02-21T05:40:01.741Z,9.3
2023-02-21T05:41:01.116Z,9.3
2023-02-21T05:42:04.078Z,9.3
2023-02-21T05:43:01.197Z,9.3
2023-02-21T05:44:16.020Z,9.3
2023-02-21T05:45:02.265Z,9.3
2023-02-21T05:46:01.184Z,9.3
2023-02-21T05:47:01.149Z,9.3
2023-02-21T05:48:01.160Z,9.3
2023-02-21T05:49:01.163Z,9.3
2023-02-21T05:50:01.496Z,9.3
2023-02-21T05:51:03.943Z,9.3
2023-02-21T05:52:00.860Z,9.3
2023-02-21T05:53:01.096Z,9.3
2023-02-21T05:54:01.086Z,9.3
2023-02-21T05:55:01.093Z,9.3
2023-02-21T05:56:01.116Z,9.3
2023-02-21T05:57:01.161Z,9.3
2023-02-21T05:58:01.172Z,9.3
2023-02-21T05:59:01.790Z,9.3
2023-02-21T06:00:01.084Z,9.3
2023-02-21T06:01:02.295Z,9.3
2023-02-21T06:02:01.084Z,9.3
2023-02-21T06:03:03.764Z,9.2
2023-02-21T06:04:01.574Z,9.2
2023-02-21T06:05:02.166Z,9.2
2023-02-21T06:06:01.674Z,9.2
2023-02-21T06:07:01.301Z,9.2
2023-02-21T06:08:01.278Z,9.2
2023-02-21T06:09:01.087Z,9.2
2023-02-21T06:10:01.083Z,9.1
2023-02-21T06:11:01.083Z,9.2
2023-02-21T06:12:00.742Z,9.2
2023-02-21T06:13:00.468Z,9.2
2023-02-21T06:14:00.024Z,9.2
2023-02-21T06:14:59.669Z,9.1
2023-02-21T06:16:01.353Z,9.2
2023-02-21T06:17:02.031Z,9.2
2023-02-21T06:18:01.145Z,9.1
2023-02-21T06:19:01.655Z,9.1
2023-02-21T06:20:01.345Z,9.1
2023-02-21T06:21:01.940Z,9.1
2023-02-21T06:22:02.021Z,9.1
2023-02-21T06:23:01.088Z,9.1
2023-02-21T06:24:01.071Z,9.1
2023-02-21T06:25:01.069Z,9.1
2023-02-21T06:26:01.091Z,9.1
2023-02-21T06:27:01.134Z,9.1
2023-02-21T06:28:01.094Z,9.1
2023-02-21T06:29:01.115Z,9.1
2023-02-21T06:30:01.169Z,9.1
2023-02-21T06:31:01.371Z,9.1
2023-02-21T06:32:01.969Z,9.1
2023-02-21T06:33:01.178Z,9.1
2023-02-21T06:34:01.146Z,9.1
2023-02-21T06:35:01.150Z,9.1
2023-02-21T06:36:01.304Z,9.1
2023-02-21T06:37:01.219Z,9.1
2023-02-21T06:38:01.169Z,9.1
2023-02-21T06:39:01.169Z,9.1
2023-02-21T06:40:01.572Z,9.1
2023-02-21T06:41:01.674Z,9.1
2023-02-21T06:42:01.076Z,9.1
2023-02-21T06:43:01.068Z,9.1
2023-02-21T06:44:01.120Z,9.2
2023-02-21T06:45:01.123Z,9.1
2023-02-21T06:46:01.087Z,9.2
2023-02-21T06:47:01.113Z,9.2
2023-02-21T06:48:01.423Z,9.2
2023-02-21T06:49:02.048Z,9.2
2023-02-21T06:50:02.522Z,9.2
2023-02-21T06:51:01.154Z,9.2
2023-02-21T06:52:00.737Z,9.2
2023-02-21T06:53:00.369Z,9.2
2023-02-21T06:54:00.049Z,9.2
2023-02-21T06:54:59.720Z,9.2
2023-02-21T06:56:01.564Z,9.2
2023-02-21T06:57:02.183Z,9.2
2023-02-21T06:58:02.200Z,9.3
2023-02-21T06:59:01.188Z,9.3
2023-02-21T07:00:01.300Z,9.3
2023-02-21T07:01:02.019Z,9.3
2023-02-21T07:02:01.306Z,9.2
2023-02-21T07:03:01.121Z,9.2
2023-02-21T07:04:01.130Z,9.2
2023-02-21T07:05:01.553Z,9.2
2023-02-21T07:06:01.259Z,9.3
2023-02-21T07:07:01.727Z,9.2
2023-02-21T07:08:01.162Z,9.3
2023-02-21T07:09:01.149Z,9.3
2023-02-21T07:10:03.479Z,9.3
2023-02-21T07:11:02.419Z,9.3
2023-02-21T07:12:01.990Z,9.3
2023-02-21T07:13:01.374Z,9.3
2023-02-21T07:14:01.275Z,9.3
2023-02-21T07:15:05.844Z,9.3
2023-02-21T07:16:02.178Z,9.3
2023-02-21T07:17:01.108Z,9.3
2023-02-21T07:18:01.138Z,9.3
2023-02-21T07:19:01.359Z,9.3
2023-02-21T07:20:09.224Z,9.3
2023-02-21T07:21:02.678Z,9.3
2023-02-21T07:22:01.153Z,9.3
2023-02-21T07:23:01.158Z,9.3
2023-02-21T07:24:01.555Z,9.3
2023-02-21T07:25:11.591Z,9.3
2023-02-21T07:26:01.300Z,9.3
2023-02-21T07:27:01.054Z,9.3
2023-02-21T07:28:01.078Z,9.3
2023-02-21T07:29:01.140Z,9.3
2023-02-21T07:30:15.063Z,9.3
2023-02-21T07:31:01.244Z,9.3
2023-02-21T07:32:00.692Z,9.3
2023-02-21T07:33:00.540Z,9.3
2023-02-21T07:34:00.176Z,9.3
2023-02-21T07:34:59.784Z,9.3
2023-02-21T07:36:01.937Z,9.3
2023-02-21T07:37:01.123Z,9.3
2023-02-21T07:38:01.143Z,9.3
2023-02-21T07:39:01.324Z,9.3
2023-02-21T07:40:01.304Z,9.3
2023-02-21T07:41:01.147Z,9.3
2023-02-21T07:42:01.150Z,9.3
2023-02-21T07:43:01.551Z,9.4
2023-02-21T07:44:01.581Z,9.4
2023-02-21T07:45:02.194Z,9.3
2023-02-21T07:46:01.388Z,9.4
2023-02-21T07:47:01.995Z,9.4
2023-02-21T07:48:02.117Z,9.4
2023-02-21T07:49:01.314Z,9.4
2023-02-21T07:50:01.217Z,9.4
2023-02-21T07:51:01.278Z,9.3
2023-02-21T07:52:01.514Z,9.3
2023-02-21T07:53:01.137Z,9.4
2023-02-21T07:54:01.239Z,9.4
2023-02-21T07:55:01.335Z,9.4
2023-02-21T07:56:02.051Z,9.3
2023-02-21T07:57:01.140Z,9.4
2023-02-21T07:58:01.330Z,9.4
2023-02-21T07:59:01.173Z,9.4
2023-02-21T08:00:01.241Z,9.4
2023-02-21T08:01:02.040Z,9.4
2023-02-21T08:02:00.897Z,9.4
2023-02-21T08:03:00.716Z,9.5
2023-02-21T08:04:00.360Z,9.5
2023-02-21T08:05:00.338Z,9.5
2023-02-21T08:05:59.958Z,9.5
2023-02-21T08:06:59.540Z,9.5
2023-02-21T08:08:01.413Z,9.5
2023-02-21T08:09:01.330Z,9.5
2023-02-21T08:10:01.359Z,9.5
2023-02-21T08:11:01.329Z,9.5
2023-02-21T08:12:01.019Z,9.5
2023-02-21T08:13:02.046Z,9.5
2023-02-21T08:14:01.804Z,9.5
2023-02-21T08:15:01.165Z,9.5
2023-02-21T08:16:01.617Z,9.5
2023-02-21T08:17:00.749Z,9.5
2023-02-21T08:18:00.490Z,9.5
2023-02-21T08:19:00.177Z,9.5
2023-02-21T08:19:59.815Z,9.5
2023-02-21T08:21:01.485Z,9.5
2023-02-21T08:22:01.100Z,9.5
2023-02-21T08:23:01.141Z,9.5
2023-02-21T08:24:01.113Z,9.5
2023-02-21T08:25:01.271Z,9.5
2023-02-21T08:26:01.145Z,9.4
2023-02-21T08:27:01.130Z,9.5
2023-02-21T08:28:01.368Z,9.4
2023-02-21T08:29:01.269Z,9.4
2023-02-21T08:30:01.697Z,9.4
2023-02-21T08:31:02.437Z,9.4
2023-02-21T08:32:00.735Z,9.4
2023-02-21T08:33:01.085Z,9.3
2023-02-21T08:34:01.084Z,9.3
2023-02-21T08:35:01.264Z,9.3
2023-02-21T08:36:01.381Z,9.3
2023-02-21T08:37:00.997Z,9.3
2023-02-21T08:38:01.055Z,9.3
2023-02-21T08:39:01.202Z,9.3
2023-02-21T08:40:01.326Z,9.3
2023-02-21T08:41:01.111Z,9.3
2023-02-21T08:42:01.286Z,9.3
2023-02-21T08:43:01.186Z,9.3
2023-02-21T08:44:01.160Z,9.3
2023-02-21T08:45:01.158Z,9.3
2023-02-21T08:46:01.151Z,9.3
2023-02-21T08:47:01.679Z,9.3
2023-02-21T08:48:01.434Z,9.3
2023-02-21T08:49:01.173Z,9.3
2023-02-21T08:50:01.077Z,9.3
2023-02-21T08:51:01.063Z,9.3
2023-02-21T08:52:00.692Z,9.3
2023-02-21T08:53:00.621Z,9.3
2023-02-21T08:54:00.274Z,9.3
2023-02-21T08:54:59.831Z,9.3
2023-02-21T08:56:01.842Z,9.3
2023-02-21T08:57:01.492Z,9.3
2023-02-21T08:58:01.624Z,9.3
2023-02-21T08:59:02.325Z,9.3
2023-02-21T09:00:01.330Z,9.3
2023-02-21T09:01:03.490Z,9.3
2023-02-21T09:02:01.211Z,9.3
2023-02-21T09:03:01.402Z,9.3
2023-02-21T09:04:01.200Z,9.3
2023-02-21T09:05:01.062Z,9.3
2023-02-21T09:06:05.151Z,9.3
2023-02-21T09:07:01.142Z,9.3
2023-02-21T09:08:01.129Z,9.3
2023-02-21T09:09:01.714Z,9.3
2023-02-21T09:10:01.416Z,9.3
2023-02-21T09:11:08.394Z,9.4
2023-02-21T09:12:01.349Z,9.4
2023-02-21T09:13:02.131Z,9.4
2023-02-21T09:14:01.392Z,9.4
2023-02-21T09:15:01.451Z,9.4
2023-02-21T09:16:11.101Z,9.4
2023-02-21T09:17:01.644Z,9.4
2023-02-21T09:18:01.258Z,9.5
2023-02-21T09:19:01.373Z,9.5
2023-02-21T09:20:01.163Z,9.5
2023-02-21T09:21:14.437Z,9.5
2023-02-21T09:22:01.889Z,9.5
2023-02-21T09:23:01.364Z,9.5
2023-02-21T09:24:01.054Z,9.5
2023-02-21T09:25:01.356Z,9.5
2023-02-21T09:26:16.916Z,9.5
2023-02-21T09:27:01.105Z,9.5
2023-02-21T09:28:01.462Z,9.5
2023-02-21T09:29:01.894Z,9.5
2023-02-21T09:30:01.668Z,9.5
2023-02-21T09:31:01.191Z,9.5
2023-02-21T09:32:01.220Z,9.6
2023-02-21T09:33:01.155Z,9.6
2023-02-21T09:34:01.482Z,9.6
2023-02-21T09:35:01.154Z,9.6
2023-02-21T09:36:01.191Z,9.6
2023-02-21T09:37:01.137Z,9.6
2023-02-21T09:38:01.633Z,9.6
2023-02-21T09:39:01.115Z,9.6
2023-02-21T09:40:01.075Z,9.6
2023-02-21T09:41:01.093Z,9.6
2023-02-21T09:42:01.154Z,9.6
2023-02-21T09:43:01.094Z,9.6
2023-02-21T09:44:01.120Z,9.6
2023-02-21T09:45:03.802Z,9.6
2023-02-21T09:46:01.350Z,9.6
2023-02-21T09:47:01.292Z,9.6
2023-02-21T09:48:01.972Z,9.6
2023-02-21T09:49:01.136Z,9.6
2023-02-21T09:50:01.151Z,9.6
2023-02-21T09:51:01.157Z,9.6
2023-02-21T09:52:01.157Z,9.6
2023-02-21T09:53:01.010Z,9.6
2023-02-21T09:54:02.396Z,9.6
2023-02-21T09:55:01.107Z,9.6
2023-02-21T09:56:01.415Z,9.6
2023-02-21T09:57:01.096Z,9.6
2023-02-21T09:58:01.182Z,9.6
2023-02-21T09:59:01.109Z,9.6
2023-02-21T10:00:01.230Z,9.6
2023-02-21T10:01:01.262Z,9.6
2023-02-21T10:02:01.231Z,9.6
2023-02-21T10:03:01.936Z,9.6
2023-02-21T10:04:01.952Z,9.6
2023-02-21T10:05:01.296Z,9.6
2023-02-21T10:06:01.722Z,9.6
2023-02-21T10:07:01.950Z,9.7
2023-02-21T10:08:02.139Z,9.7
2023-02-21T10:09:01.170Z,9.8
2023-02-21T10:10:02.253Z,9.8
2023-02-21T10:11:02.127Z,9.8
2023-02-21T10:12:01.120Z,9.8
2023-02-21T10:13:00.770Z,9.8
2023-02-21T10:14:00.518Z,9.7
2023-02-21T10:15:00.419Z,9.7
2023-02-21T10:16:00.430Z,9.7
2023-02-21T10:17:00.102Z,9.7
2023-02-21T10:17:59.774Z,9.7
2023-02-21T10:19:01.863Z,9.7
2023-02-21T10:20:01.370Z,9.7
2023-02-21T10:21:01.458Z,9.8
2023-02-21T10:22:01.753Z,9.7
2023-02-21T10:23:01.634Z,9.8
2023-02-21T10:24:01.554Z,9.8
2023-02-21T10:25:01.554Z,9.8
2023-02-21T10:26:01.174Z,9.8
2023-02-21T10:27:00.765Z,9.8
2023-02-21T10:28:00.466Z,9.9
2023-02-21T10:29:00.275Z,9.9
2023-02-21T10:30:00.116Z,9.9
2023-02-21T10:31:00.314Z,9.9
2023-02-21T10:32:00.411Z,9.9
2023-02-21T10:33:00.192Z,9.9
2023-02-21T10:34:00.051Z,9.9
2023-02-21T10:34:59.950Z,9.9
2023-02-21T10:35:59.628Z,9.8
2023-02-21T10:37:01.323Z,9.8
2023-02-21T10:38:02.568Z,9.8
2023-02-21T10:39:01.182Z,9.8
2023-02-21T10:40:01.213Z,9.8
2023-02-21T10:41:01.468Z,9.8
2023-02-21T10:42:02.028Z,9.8
2023-02-21T10:43:01.191Z,9.8
2023-02-21T10:44:01.081Z,9.8
2023-02-21T10:45:01.106Z,9.8
2023-02-21T10:46:01.281Z,9.8
2023-02-21T10:47:04.132Z,9.8
2023-02-21T10:48:01.412Z,9.8
2023-02-21T10:49:01.116Z,9.8
2023-02-21T10:50:01.137Z,9.8
2023-02-21T10:51:01.118Z,9.8
2023-02-21T10:52:06.095Z,9.8
2023-02-21T10:53:01.058Z,9.8
2023-02-21T10:54:01.526Z,9.8
2023-02-21T10:55:02.125Z,9.8
2023-02-21T10:56:01.240Z,9.8
2023-02-21T10:57:08.400Z,9.8
2023-02-21T10:58:01.861Z,9.8
2023-02-21T10:59:01.079Z,9.8
2023-02-21T11:00:01.333Z,9.8
2023-02-21T11:01:01.554Z,9.8
2023-02-21T11:02:12.688Z,9.8
2023-02-21T11:03:01.108Z,9.8
2023-02-21T11:04:01.339Z,9.8
2023-02-21T11:05:01.410Z,9.8
2023-02-21T11:06:01.307Z,9.8
2023-02-21T11:07:15.349Z,9.8
2023-02-21T11:08:01.204Z,9.8
2023-02-21T11:09:02.146Z,9.8
2023-02-21T11:10:01.490Z,9.8
2023-02-21T11:11:01.071Z,9.8
2023-02-21T11:12:01.160Z,9.8
2023-02-21T11:13:00.942Z,9.8
2023-02-21T11:14:01.176Z,9.8
2023-02-21T11:15:01.072Z,9.9
2023-02-21T11:16:01.103Z,9.9
2023-02-21T11:17:01.150Z,9.9
2023-02-21T11:18:01.234Z,9.9
2023-02-21T11:19:02.189Z,10
2023-02-21T11:20:01.839Z,10
2023-02-21T11:21:01.864Z,10
2023-02-21T11:22:01.142Z,10
2023-02-21T11:23:01.128Z,10.1
2023-02-21T11:24:01.147Z,10.1
2023-02-21T11:25:00.944Z,10.1
2023-02-21T11:25:59.885Z,10.1
2023-02-21T11:26:59.588Z,10.1
2023-02-21T11:28:01.236Z,10.2
2023-02-21T11:29:01.332Z,10.2
2023-02-21T11:30:01.441Z,10.2
2023-02-21T11:31:01.576Z,10.2
2023-02-21T11:32:01.213Z,10.1
2023-02-21T11:33:01.503Z,10.1
2023-02-21T11:34:01.089Z,10.1
2023-02-21T11:35:01.156Z,10.1
2023-02-21T11:36:01.209Z,10.1
2023-02-21T11:37:01.658Z,10.1
2023-02-21T11:38:01.534Z,10
2023-02-21T11:39:01.196Z,10
2023-02-21T11:40:01.148Z,10
2023-02-21T11:41:01.127Z,10
2023-02-21T11:42:01.155Z,10
2023-02-21T11:43:01.553Z,10
2023-02-21T11:44:01.158Z,10
2023-02-21T11:45:01.206Z,9.9
2023-02-21T11:46:01.940Z,9.9
2023-02-21T11:47:01.211Z,9.9
2023-02-21T11:48:01.093Z,9.8
2023-02-21T11:49:01.107Z,9.8
2023-02-21T11:50:01.082Z,9.8
2023-02-21T11:51:01.087Z,9.8
2023-02-21T11:52:01.189Z,9.8
2023-02-21T11:53:00.904Z,9.8
2023-02-21T11:54:01.150Z,9.8
2023-02-21T11:55:01.477Z,9.8
2023-02-21T11:56:01.519Z,9.8
2023-02-21T11:57:01.413Z,9.8
2023-02-21T11:58:01.403Z,9.8
2023-02-21T11:59:01.167Z,9.8
2023-02-21T12:00:01.066Z,9.8
2023-02-21T12:01:01.154Z,9.8
2023-02-21T12:02:01.165Z,9.8
2023-02-21T12:03:01.547Z,9.8
2023-02-21T12:04:01.262Z,9.7
2023-02-21T12:05:02.106Z,9.7
2023-02-21T12:06:01.200Z,9.7
2023-02-21T12:07:01.781Z,9.7
2023-02-21T12:08:01.096Z,9.7
2023-02-21T12:09:01.267Z,9.7
2023-02-21T12:10:01.597Z,9.7
2023-02-21T12:11:01.332Z,9.7
2023-02-21T12:12:02.484Z,9.7
2023-02-21T12:13:01.231Z,9.7
2023-02-21T12:14:01.443Z,9.6
2023-02-21T12:15:03.142Z,9.7
2023-02-21T12:16:01.188Z,9.7
2023-02-21T12:17:01.381Z,9.6
2023-02-21T12:18:01.571Z,9.6
2023-02-21T12:19:02.176Z,9.6
2023-02-21T12:20:01.373Z,9.6
2023-02-21T12:21:01.194Z,9.6
2023-02-21T12:22:01.071Z,9.6
2023-02-21T12:23:01.093Z,9.6
2023-02-21T12:24:01.117Z,9.6
2023-02-21T12:25:01.118Z,9.7
2023-02-21T12:26:01.349Z,9.7
2023-02-21T12:27:01.529Z,9.7
2023-02-21T12:28:02.709Z,9.7
2023-02-21T12:29:01.142Z,9.6
2023-02-21T12:30:01.228Z,9.6
2023-02-21T12:31:01.342Z,9.6
2023-02-21T12:32:02.260Z,9.6
2023-02-21T12:33:06.610Z,9.6
2023-02-21T12:34:02.085Z,9.6
2023-02-21T12:35:01.755Z,9.6
2023-02-21T12:36:01.260Z,9.6
2023-02-21T12:37:01.989Z,9.6
2023-02-21T12:38:09.330Z,9.6
2023-02-21T12:39:01.341Z,9.6
2023-02-21T12:40:01.395Z,9.6
2023-02-21T12:41:02.106Z,9.6
2023-02-21T12:42:02.419Z,9.6
2023-02-21T12:43:13.134Z,9.6
2023-02-21T12:44:02.125Z,9.6
2023-02-21T12:45:01.165Z,9.6
2023-02-21T12:46:01.491Z,9.6
2023-02-21T12:47:01.415Z,9.6
2023-02-21T12:48:16.678Z,9.6
2023-02-21T12:49:02.221Z,9.6
2023-02-21T12:50:01.229Z,9.6
2023-02-21T12:51:02.928Z,9.6
2023-02-21T12:52:01.238Z,9.6
2023-02-21T12:53:00.671Z,9.6
2023-02-21T12:54:00.483Z,9.6
2023-02-21T12:55:00.103Z,9.6
2023-02-21T12:55:59.762Z,9.6
2023-02-21T12:57:01.431Z,9.6
2023-02-21T12:58:01.122Z,9.6
2023-02-21T12:59:01.144Z,9.6
2023-02-21T13:00:01.665Z,9.6
2023-02-21T13:01:04.037Z,9.6
2023-02-21T13:02:01.273Z,9.6
2023-02-21T13:03:01.226Z,9.6
2023-02-21T13:04:01.487Z,9.6
2023-02-21T13:05:01.583Z,9.7
2023-02-21T13:06:01.574Z,9.6
2023-02-21T13:07:01.103Z,9.7
2023-02-21T13:08:01.434Z,9.7
2023-02-21T13:09:01.250Z,9.7
2023-02-21T13:10:01.131Z,9.7
2023-02-21T13:11:01.120Z,9.7
2023-02-21T13:12:01.518Z,9.7
2023-02-21T13:13:01.842Z,9.7
2023-02-21T13:14:01.203Z,9.7
2023-02-21T13:15:01.336Z,9.7
2023-02-21T13:16:01.939Z,9.7
2023-02-21T13:17:01.128Z,9.7
2023-02-21T13:18:01.136Z,9.7
2023-02-21T13:19:01.518Z,9.7
2023-02-21T13:20:01.179Z,9.7
2023-02-21T13:21:01.328Z,9.7
2023-02-21T13:22:01.286Z,9.7
2023-02-21T13:23:02.277Z,9.7
2023-02-21T13:24:02.064Z,9.7
2023-02-21T13:25:02.277Z,9.7
2023-02-21T13:26:01.048Z,9.7
2023-02-21T13:27:01.068Z,9.7
2023-02-21T13:28:01.107Z,9.7
2023-02-21T13:29:01.165Z,9.7
2023-02-21T13:30:01.162Z,9.7
2023-02-21T13:31:01.346Z,9.7
2023-02-21T13:32:01.243Z,9.6
2023-02-21T13:33:01.561Z,9.7
2023-02-21T13:34:01.398Z,9.6
2023-02-21T13:35:01.724Z,9.6
2023-02-21T13:36:02.593Z,9.6
2023-02-21T13:37:01.060Z,9.6
2023-02-21T13:38:01.149Z,9.6
2023-02-21T13:39:01.168Z,9.6
2023-02-21T13:40:01.076Z,9.6
2023-02-21T13:41:01.730Z,9.6
2023-02-21T13:42:01.184Z,9.6
2023-02-21T13:43:01.551Z,9.6
2023-02-21T13:44:01.104Z,9.6
2023-02-21T13:45:01.096Z,9.6
2023-02-21T13:46:01.109Z,9.6
2023-02-21T13:47:01.107Z,9.6
2023-02-21T13:48:01.123Z,9.6
2023-02-21T13:49:01.553Z,9.6